sensor_id;sensor_type;location;lat;lon;timestamp;temperature;humidity
3312;DHT22;1668;49.648;8.570;2024-02-14T00:00:06;5.60;99.90
3312;DHT22;1668;49.648;8.570;2024-02-14T00:02:35;5.70;1.00
3312;DHT22;1668;49.648;8.570;2024-02-14T00:05:05;5.60;1.00
3312;DHT22;1668;49.648;8.570;2024-02-14T00:07:32;5.60;1.00
3312;DHT22;1668;49.648;8.570;2024-02-14T00:09:59;5.60;1.00
3312;DHT22;1668;49.648;8.570;2024-02-14T00:12:26;5.60;1.00
3312;DHT22;1668;49.648;8.570;2024-02-14T00:14:52;5.60;1.00
3312;DHT22;1668;49.648;8.570;2024-02-14T00:17:19;5.70;99.90
3312;DHT22;1668;49.648;8.570;2024-02-14T00:19:47;5.70;99.90
3312;DHT22;1668;49.648;8.570;2024-02-14T00:22:15;5.70;99.90
3312;DHT22;1668;49.648;8.570;2024-02-14T00:24:42;5.70;1.00
3312;DHT22;1668;49.648;8.570;2024-02-14T00:27:09;5.70;1.00
3312;DHT22;1668;49.648;8.570;2024-02-14T00:29:36;5.70;99.90
3312;DHT22;1668;49.648;8.570;2024-02-14T00:32:03;5.80;99.90
3312;DHT22;1668;49.648;8.570;2024-02-14T00:34:30;5.80;80.30
3312;DHT22;1668;49.648;8.570;2024-02-14T00:36:57;5.80;99.90
3312;DHT22;1668;49.648;8.570;2024-02-14T00:39:25;5.80;1.00
3312;DHT22;1668;49.648;8.570;2024-02-14T00:41:52;5.90;1.00
3312;DHT22;1668;49.648;8.570;2024-02-14T00:44:20;5.90;99.90
3312;DHT22;1668;49.648;8.570;2024-02-14T00:46:47;5.90;19.00
3312;DHT22;1668;49.648;8.570;2024-02-14T00:49:14;5.90;99.90
3312;DHT22;1668;49.648;8.570;2024-02-14T00:51:41;5.90;1.00
3312;DHT22;1668;49.648;8.570;2024-02-14T00:54:08;5.90;99.90
3312;DHT22;1668;49.648;8.570;2024-02-14T00:56:36;5.90;1.00
3312;DHT22;1668;49.648;8.570;2024-02-14T00:59:03;6.00;99.90
3312;DHT22;1668;49.648;8.570;2024-02-14T01:01:30;5.90;1.00
3312;DHT22;1668;49.648;8.570;2024-02-14T01:03:56;5.90;99.90
3312;DHT22;1668;49.648;8.570;2024-02-14T01:06:23;5.90;99.90
3312;DHT22;1668;49.648;8.570;2024-02-14T01:08:50;5.90;1.00
3312;DHT22;1668;49.648;8.570;2024-02-14T01:11:17;5.90;99.90
3312;DHT22;1668;49.648;8.570;2024-02-14T01:13:45;5.90;99.90
3312;DHT22;1668;49.648;8.570;2024-02-14T01:16:12;5.90;99.90
3312;DHT22;1668;49.648;8.570;2024-02-14T01:18:40;5.80;1.00
3312;DHT22;1668;49.648;8.570;2024-02-14T01:21:07;5.80;99.90
3312;DHT22;1668;49.648;8.570;2024-02-14T01:23:34;5.90;99.90
3312;DHT22;1668;49.648;8.570;2024-02-14T01:26:01;5.80;99.90
3312;DHT22;1668;49.648;8.570;2024-02-14T01:28:28;5.80;1.00
3312;DHT22;1668;49.648;8.570;2024-02-14T01:30:56;5.80;84.90
3312;DHT22;1668;49.648;8.570;2024-02-14T01:33:23;5.80;99.90
3312;DHT22;1668;49.648;8.570;2024-02-14T01:35:50;5.70;99.90
3312;DHT22;1668;49.648;8.570;2024-02-14T01:38:17;5.70;99.90
3312;DHT22;1668;49.648;8.570;2024-02-14T01:40:44;5.70;99.90
3312;DHT22;1668;49.648;8.570;2024-02-14T01:43:12;5.70;99.90
3312;DHT22;1668;49.648;8.570;2024-02-14T01:45:40;5.70;99.90
3312;DHT22;1668;49.648;8.570;2024-02-14T01:48:09;5.70;77.00
3312;DHT22;1668;49.648;8.570;2024-02-14T01:50:36;5.80;99.90
3312;DHT22;1668;49.648;8.570;2024-02-14T01:53:05;5.70;56.70
3312;DHT22;1668;49.648;8.570;2024-02-14T01:55:32;5.80;1.00
3312;DHT22;1668;49.648;8.570;2024-02-14T01:57:59;5.80;1.00
3312;DHT22;1668;49.648;8.570;2024-02-14T02:00:30;5.80;1.00
3312;DHT22;1668;49.648;8.570;2024-02-14T02:02:58;5.90;1.00
3312;DHT22;1668;49.648;8.570;2024-02-14T02:05:26;5.80;1.00
3312;DHT22;1668;49.648;8.570;2024-02-14T02:07:54;5.90;99.90
3312;DHT22;1668;49.648;8.570;2024-02-14T02:10:21;5.90;1.00
3312;DHT22;1668;49.648;8.570;2024-02-14T02:12:51;5.90;99.90
3312;DHT22;1668;49.648;8.570;2024-02-14T02:15:17;6.00;64.90
3312;DHT22;1668;49.648;8.570;2024-02-14T02:17:44;6.00;99.90
3312;DHT22;1668;49.648;8.570;2024-02-14T02:20:18;6.00;99.90
3312;DHT22;1668;49.648;8.570;2024-02-14T02:22:46;6.00;1.00
3312;DHT22;1668;49.648;8.570;2024-02-14T02:25:14;6.00;1.00
3312;DHT22;1668;49.648;8.570;2024-02-14T02:27:41;6.00;1.00
3312;DHT22;1668;49.648;8.570;2024-02-14T02:30:08;6.10;99.90
3312;DHT22;1668;49.648;8.570;2024-02-14T02:32:36;6.00;1.00
3312;DHT22;1668;49.648;8.570;2024-02-14T02:35:03;6.00;1.00
3312;DHT22;1668;49.648;8.570;2024-02-14T02:37:30;6.10;1.00
3312;DHT22;1668;49.648;8.570;2024-02-14T02:39:59;6.10;99.90
3312;DHT22;1668;49.648;8.570;2024-02-14T02:42:25;6.10;1.00
3312;DHT22;1668;49.648;8.570;2024-02-14T02:44:52;6.10;1.00
3312;DHT22;1668;49.648;8.570;2024-02-14T02:47:19;6.10;1.00
3312;DHT22;1668;49.648;8.570;2024-02-14T02:49:47;6.10;1.00
3312;DHT22;1668;49.648;8.570;2024-02-14T02:52:14;6.20;1.00
3312;DHT22;1668;49.648;8.570;2024-02-14T02:54:41;6.20;1.00
3312;DHT22;1668;49.648;8.570;2024-02-14T02:57:11;6.20;1.00
3312;DHT22;1668;49.648;8.570;2024-02-14T02:59:38;6.30;99.90
3312;DHT22;1668;49.648;8.570;2024-02-14T03:02:08;6.30;99.90
3312;DHT22;1668;49.648;8.570;2024-02-14T03:04:37;6.30;99.90
3312;DHT22;1668;49.648;8.570;2024-02-14T03:07:04;6.40;59.50
3312;DHT22;1668;49.648;8.570;2024-02-14T03:09:32;6.40;1.00
3312;DHT22;1668;49.648;8.570;2024-02-14T03:11:59;6.40;99.90
3312;DHT22;1668;49.648;8.570;2024-02-14T03:14:29;6.40;99.90
3312;DHT22;1668;49.648;8.570;2024-02-14T03:16:58;6.40;1.00
3312;DHT22;1668;49.648;8.570;2024-02-14T03:19:25;6.50;1.00
3312;DHT22;1668;49.648;8.570;2024-02-14T03:21:53;6.50;1.00
3312;DHT22;1668;49.648;8.570;2024-02-14T03:24:20;6.50;1.00
3312;DHT22;1668;49.648;8.570;2024-02-14T03:26:47;6.60;99.90
3312;DHT22;1668;49.648;8.570;2024-02-14T03:29:16;6.60;1.00
3312;DHT22;1668;49.648;8.570;2024-02-14T03:31:46;6.60;1.00
3312;DHT22;1668;49.648;8.570;2024-02-14T03:34:13;6.60;99.90
3312;DHT22;1668;49.648;8.570;2024-02-14T03:36:40;6.60;99.90
3312;DHT22;1668;49.648;8.570;2024-02-14T03:39:08;6.60;99.90
3312;DHT22;1668;49.648;8.570;2024-02-14T03:41:36;6.60;1.00
3312;DHT22;1668;49.648;8.570;2024-02-14T03:44:04;6.60;99.90
3312;DHT22;1668;49.648;8.570;2024-02-14T03:46:34;6.60;1.00
3312;DHT22;1668;49.648;8.570;2024-02-14T03:49:03;6.60;1.00
3312;DHT22;1668;49.648;8.570;2024-02-14T03:51:29;6.60;99.90
3312;DHT22;1668;49.648;8.570;2024-02-14T03:53:57;6.60;1.00
3312;DHT22;1668;49.648;8.570;2024-02-14T03:56:24;6.60;1.00
3312;DHT22;1668;49.648;8.570;2024-02-14T03:58:51;6.60;1.00
3312;DHT22;1668;49.648;8.570;2024-02-14T04:01:18;6.60;99.90
3312;DHT22;1668;49.648;8.570;2024-02-14T04:03:46;6.60;1.00
3312;DHT22;1668;49.648;8.570;2024-02-14T04:06:15;6.60;99.90
3312;DHT22;1668;49.648;8.570;2024-02-14T04:08:42;6.60;99.90
3312;DHT22;1668;49.648;8.570;2024-02-14T04:11:09;6.60;99.90
3312;DHT22;1668;49.648;8.570;2024-02-14T04:13:38;6.60;99.90
3312;DHT22;1668;49.648;8.570;2024-02-14T04:16:05;6.60;99.90
3312;DHT22;1668;49.648;8.570;2024-02-14T04:18:51;6.60;99.90
3312;DHT22;1668;49.648;8.570;2024-02-14T04:21:20;6.60;1.00
3312;DHT22;1668;49.648;8.570;2024-02-14T04:23:47;6.60;99.90
3312;DHT22;1668;49.648;8.570;2024-02-14T04:26:19;6.70;1.00
3312;DHT22;1668;49.648;8.570;2024-02-14T04:28:46;6.70;99.90
3312;DHT22;1668;49.648;8.570;2024-02-14T04:31:12;6.70;60.80
3312;DHT22;1668;49.648;8.570;2024-02-14T04:33:39;6.70;1.00
3312;DHT22;1668;49.648;8.570;2024-02-14T04:36:06;6.70;54.00
3312;DHT22;1668;49.648;8.570;2024-02-14T04:38:34;6.80;1.00
3312;DHT22;1668;49.648;8.570;2024-02-14T04:41:01;6.70;1.00
3312;DHT22;1668;49.648;8.570;2024-02-14T04:43:28;6.70;1.00
3312;DHT22;1668;49.648;8.570;2024-02-14T04:45:55;6.70;1.00
3312;DHT22;1668;49.648;8.570;2024-02-14T04:48:22;6.70;1.00
3312;DHT22;1668;49.648;8.570;2024-02-14T04:50:49;6.70;1.00
3312;DHT22;1668;49.648;8.570;2024-02-14T04:53:15;6.80;1.00
3312;DHT22;1668;49.648;8.570;2024-02-14T04:55:44;6.70;99.90
3312;DHT22;1668;49.648;8.570;2024-02-14T04:58:11;6.80;99.90
3312;DHT22;1668;49.648;8.570;2024-02-14T05:00:38;6.80;1.00
3312;DHT22;1668;49.648;8.570;2024-02-14T05:03:05;6.80;1.00
3312;DHT22;1668;49.648;8.570;2024-02-14T05:05:32;6.80;1.00
3312;DHT22;1668;49.648;8.570;2024-02-14T05:07:59;6.80;1.00
3312;DHT22;1668;49.648;8.570;2024-02-14T05:10:27;6.80;1.00
3312;DHT22;1668;49.648;8.570;2024-02-14T05:12:56;6.80;1.00
3312;DHT22;1668;49.648;8.570;2024-02-14T05:15:23;6.80;1.00
3312;DHT22;1668;49.648;8.570;2024-02-14T05:17:50;6.80;1.00
3312;DHT22;1668;49.648;8.570;2024-02-14T05:20:17;6.80;1.00
3312;DHT22;1668;49.648;8.570;2024-02-14T05:22:44;6.80;1.00
3312;DHT22;1668;49.648;8.570;2024-02-14T05:25:11;6.80;1.00
3312;DHT22;1668;49.648;8.570;2024-02-14T05:27:38;6.80;1.00
3312;DHT22;1668;49.648;8.570;2024-02-14T05:30:07;6.80;1.00
3312;DHT22;1668;49.648;8.570;2024-02-14T05:32:35;6.90;1.00
3312;DHT22;1668;49.648;8.570;2024-02-14T05:35:02;6.80;1.00
3312;DHT22;1668;49.648;8.570;2024-02-14T05:37:31;6.80;1.00
3312;DHT22;1668;49.648;8.570;2024-02-14T05:39:58;6.80;1.00
3312;DHT22;1668;49.648;8.570;2024-02-14T05:42:25;6.80;80.40
3312;DHT22;1668;49.648;8.570;2024-02-14T05:44:53;6.80;99.90
3312;DHT22;1668;49.648;8.570;2024-02-14T05:47:21;6.80;54.30
3312;DHT22;1668;49.648;8.570;2024-02-14T05:49:48;6.80;99.90
3312;DHT22;1668;49.648;8.570;2024-02-14T05:52:15;6.80;99.90
3312;DHT22;1668;49.648;8.570;2024-02-14T05:54:43;6.80;1.00
3312;DHT22;1668;49.648;8.570;2024-02-14T05:57:10;6.80;99.90
3312;DHT22;1668;49.648;8.570;2024-02-14T05:59:37;6.80;99.90
3312;DHT22;1668;49.648;8.570;2024-02-14T06:02:04;6.80;1.00
3312;DHT22;1668;49.648;8.570;2024-02-14T06:04:35;6.80;99.90
3312;DHT22;1668;49.648;8.570;2024-02-14T06:07:01;6.80;1.00
3312;DHT22;1668;49.648;8.570;2024-02-14T06:09:31;6.90;1.00
3312;DHT22;1668;49.648;8.570;2024-02-14T06:11:57;6.80;1.00
3312;DHT22;1668;49.648;8.570;2024-02-14T06:14:24;6.80;1.00
3312;DHT22;1668;49.648;8.570;2024-02-14T06:16:51;6.90;99.90
3312;DHT22;1668;49.648;8.570;2024-02-14T06:19:18;6.90;1.00
3312;DHT22;1668;49.648;8.570;2024-02-14T06:21:46;6.90;1.00
3312;DHT22;1668;49.648;8.570;2024-02-14T06:24:13;6.90;1.00
3312;DHT22;1668;49.648;8.570;2024-02-14T06:26:39;6.90;1.00
3312;DHT22;1668;49.648;8.570;2024-02-14T06:29:06;6.90;99.90
3312;DHT22;1668;49.648;8.570;2024-02-14T06:31:33;6.90;99.90
3312;DHT22;1668;49.648;8.570;2024-02-14T06:34:00;6.80;1.00
3312;DHT22;1668;49.648;8.570;2024-02-14T06:36:27;6.90;1.00
3312;DHT22;1668;49.648;8.570;2024-02-14T06:38:55;6.80;89.90
3312;DHT22;1668;49.648;8.570;2024-02-14T06:41:22;6.80;63.10
3312;DHT22;1668;49.648;8.570;2024-02-14T06:43:49;6.90;1.00
3312;DHT22;1668;49.648;8.570;2024-02-14T06:46:16;6.80;1.00
3312;DHT22;1668;49.648;8.570;2024-02-14T06:48:43;6.80;99.90
3312;DHT22;1668;49.648;8.570;2024-02-14T06:51:10;6.80;99.90
3312;DHT22;1668;49.648;8.570;2024-02-14T06:53:37;6.80;99.90
3312;DHT22;1668;49.648;8.570;2024-02-14T06:56:06;6.80;1.00
3312;DHT22;1668;49.648;8.570;2024-02-14T06:58:33;6.90;1.00
3312;DHT22;1668;49.648;8.570;2024-02-14T07:00:59;6.90;1.00
3312;DHT22;1668;49.648;8.570;2024-02-14T07:03:26;6.90;1.00
3312;DHT22;1668;49.648;8.570;2024-02-14T07:05:53;6.80;1.00
3312;DHT22;1668;49.648;8.570;2024-02-14T07:08:20;6.90;99.90
3312;DHT22;1668;49.648;8.570;2024-02-14T07:10:47;6.90;1.00
3312;DHT22;1668;49.648;8.570;2024-02-14T07:13:15;6.90;99.90
3312;DHT22;1668;49.648;8.570;2024-02-14T07:15:42;6.80;1.00
3312;DHT22;1668;49.648;8.570;2024-02-14T07:18:09;6.90;1.00
3312;DHT22;1668;49.648;8.570;2024-02-14T07:20:36;6.90;1.00
3312;DHT22;1668;49.648;8.570;2024-02-14T07:23:03;6.90;99.90
3312;DHT22;1668;49.648;8.570;2024-02-14T07:25:30;6.90;1.00
3312;DHT22;1668;49.648;8.570;2024-02-14T07:27:57;6.90;1.00
3312;DHT22;1668;49.648;8.570;2024-02-14T07:30:25;6.90;1.00
3312;DHT22;1668;49.648;8.570;2024-02-14T07:32:52;7.00;99.90
3312;DHT22;1668;49.648;8.570;2024-02-14T07:35:19;7.00;1.00
3312;DHT22;1668;49.648;8.570;2024-02-14T07:37:46;7.00;22.10
3312;DHT22;1668;49.648;8.570;2024-02-14T07:40:14;7.00;59.60
3312;DHT22;1668;49.648;8.570;2024-02-14T07:42:41;7.00;99.90
3312;DHT22;1668;49.648;8.570;2024-02-14T07:45:08;7.00;51.60
3312;DHT22;1668;49.648;8.570;2024-02-14T07:47:36;7.10;99.90
3312;DHT22;1668;49.648;8.570;2024-02-14T07:50:06;7.10;99.90
3312;DHT22;1668;49.648;8.570;2024-02-14T07:52:33;7.10;1.00
3312;DHT22;1668;49.648;8.570;2024-02-14T07:55:00;7.10;99.90
3312;DHT22;1668;49.648;8.570;2024-02-14T07:57:27;7.20;1.00
3312;DHT22;1668;49.648;8.570;2024-02-14T07:59:54;7.20;1.00
3312;DHT22;1668;49.648;8.570;2024-02-14T08:02:21;7.20;1.00
3312;DHT22;1668;49.648;8.570;2024-02-14T08:04:49;7.30;1.00
3312;DHT22;1668;49.648;8.570;2024-02-14T08:07:15;7.30;1.00
3312;DHT22;1668;49.648;8.570;2024-02-14T08:09:42;7.30;1.00
3312;DHT22;1668;49.648;8.570;2024-02-14T08:12:09;7.30;1.00
3312;DHT22;1668;49.648;8.570;2024-02-14T08:14:36;7.30;48.50
3312;DHT22;1668;49.648;8.570;2024-02-14T08:17:03;7.30;28.40
3312;DHT22;1668;49.648;8.570;2024-02-14T08:19:30;7.40;1.00
3312;DHT22;1668;49.648;8.570;2024-02-14T08:21:58;7.40;1.00
3312;DHT22;1668;49.648;8.570;2024-02-14T08:24:25;7.40;1.00
3312;DHT22;1668;49.648;8.570;2024-02-14T08:26:52;7.40;99.90
3312;DHT22;1668;49.648;8.570;2024-02-14T08:29:20;7.50;99.90
3312;DHT22;1668;49.648;8.570;2024-02-14T08:31:47;7.50;99.90
3312;DHT22;1668;49.648;8.570;2024-02-14T08:34:14;7.50;1.00
3312;DHT22;1668;49.648;8.570;2024-02-14T08:36:41;7.60;99.90
3312;DHT22;1668;49.648;8.570;2024-02-14T08:39:10;7.60;98.80
3312;DHT22;1668;49.648;8.570;2024-02-14T08:41:37;7.60;22.30
3312;DHT22;1668;49.648;8.570;2024-02-14T08:44:04;7.60;50.00
3312;DHT22;1668;49.648;8.570;2024-02-14T08:46:31;7.70;1.00
3312;DHT22;1668;49.648;8.570;2024-02-14T08:49:00;7.70;99.90
3312;DHT22;1668;49.648;8.570;2024-02-14T08:51:27;7.70;99.90
3312;DHT22;1668;49.648;8.570;2024-02-14T08:53:54;7.70;1.00
3312;DHT22;1668;49.648;8.570;2024-02-14T08:56:26;7.70;1.00
3312;DHT22;1668;49.648;8.570;2024-02-14T08:58:53;7.80;1.00
3312;DHT22;1668;49.648;8.570;2024-02-14T09:01:20;7.80;1.00
3312;DHT22;1668;49.648;8.570;2024-02-14T09:03:47;7.80;1.00
3312;DHT22;1668;49.648;8.570;2024-02-14T09:06:15;7.80;99.90
3312;DHT22;1668;49.648;8.570;2024-02-14T09:08:44;7.90;99.90
3312;DHT22;1668;49.648;8.570;2024-02-14T09:11:11;8.00;99.90
3312;DHT22;1668;49.648;8.570;2024-02-14T09:13:39;8.00;99.90
3312;DHT22;1668;49.648;8.570;2024-02-14T09:16:07;8.00;99.90
3312;DHT22;1668;49.648;8.570;2024-02-14T09:18:34;8.00;99.90
3312;DHT22;1668;49.648;8.570;2024-02-14T09:21:01;8.10;99.90
3312;DHT22;1668;49.648;8.570;2024-02-14T09:23:29;8.10;1.00
3312;DHT22;1668;49.648;8.570;2024-02-14T09:25:57;8.20;1.00
3312;DHT22;1668;49.648;8.570;2024-02-14T09:28:24;8.20;1.00
3312;DHT22;1668;49.648;8.570;2024-02-14T09:30:53;8.30;1.00
3312;DHT22;1668;49.648;8.570;2024-02-14T09:33:20;8.30;1.00
3312;DHT22;1668;49.648;8.570;2024-02-14T09:35:47;8.30;1.00
3312;DHT22;1668;49.648;8.570;2024-02-14T09:38:14;8.40;1.00
3312;DHT22;1668;49.648;8.570;2024-02-14T09:40:41;8.40;1.00
3312;DHT22;1668;49.648;8.570;2024-02-14T09:43:15;8.50;1.00
3312;DHT22;1668;49.648;8.570;2024-02-14T09:45:44;8.50;1.00
3312;DHT22;1668;49.648;8.570;2024-02-14T09:48:12;8.50;1.00
3312;DHT22;1668;49.648;8.570;2024-02-14T09:50:40;8.60;1.00
3312;DHT22;1668;49.648;8.570;2024-02-14T09:53:08;8.60;1.00
3312;DHT22;1668;49.648;8.570;2024-02-14T09:55:36;8.60;1.00
3312;DHT22;1668;49.648;8.570;2024-02-14T09:58:05;8.70;99.90
3312;DHT22;1668;49.648;8.570;2024-02-14T10:00:32;8.70;1.00
3312;DHT22;1668;49.648;8.570;2024-02-14T10:02:59;8.70;1.00
3312;DHT22;1668;49.648;8.570;2024-02-14T10:05:27;8.70;1.00
3312;DHT22;1668;49.648;8.570;2024-02-14T10:07:56;8.70;1.00
3312;DHT22;1668;49.648;8.570;2024-02-14T10:10:24;8.70;1.00
3312;DHT22;1668;49.648;8.570;2024-02-14T10:12:51;8.80;1.00
3312;DHT22;1668;49.648;8.570;2024-02-14T10:15:18;8.80;1.00
3312;DHT22;1668;49.648;8.570;2024-02-14T10:17:45;8.80;1.00
3312;DHT22;1668;49.648;8.570;2024-02-14T10:20:16;8.90;1.00
3312;DHT22;1668;49.648;8.570;2024-02-14T10:22:45;8.90;99.90
3312;DHT22;1668;49.648;8.570;2024-02-14T10:25:12;8.90;99.90
3312;DHT22;1668;49.648;8.570;2024-02-14T10:27:40;9.00;99.90
3312;DHT22;1668;49.648;8.570;2024-02-14T10:30:09;9.00;99.90
3312;DHT22;1668;49.648;8.570;2024-02-14T10:32:36;9.00;99.90
3312;DHT22;1668;49.648;8.570;2024-02-14T10:35:04;9.10;99.90
3312;DHT22;1668;49.648;8.570;2024-02-14T10:37:34;9.10;99.90
3312;DHT22;1668;49.648;8.570;2024-02-14T10:40:03;9.10;99.90
3312;DHT22;1668;49.648;8.570;2024-02-14T10:42:30;9.20;99.90
3312;DHT22;1668;49.648;8.570;2024-02-14T10:44:57;9.20;99.90
3312;DHT22;1668;49.648;8.570;2024-02-14T10:47:30;9.20;99.90
3312;DHT22;1668;49.648;8.570;2024-02-14T10:49:59;9.30;99.90
3312;DHT22;1668;49.648;8.570;2024-02-14T10:52:29;9.30;99.90
3312;DHT22;1668;49.648;8.570;2024-02-14T10:54:57;9.40;99.90
3312;DHT22;1668;49.648;8.570;2024-02-14T10:57:26;9.40;99.90
3312;DHT22;1668;49.648;8.570;2024-02-14T10:59:54;9.50;99.90
3312;DHT22;1668;49.648;8.570;2024-02-14T11:02:22;9.50;99.90
3312;DHT22;1668;49.648;8.570;2024-02-14T11:04:50;9.60;1.00
3312;DHT22;1668;49.648;8.570;2024-02-14T11:07:19;9.60;1.00
3312;DHT22;1668;49.648;8.570;2024-02-14T11:09:48;9.60;1.00
3312;DHT22;1668;49.648;8.570;2024-02-14T11:12:31;9.60;1.00
3312;DHT22;1668;49.648;8.570;2024-02-14T11:14:59;9.60;4.40
3312;DHT22;1668;49.648;8.570;2024-02-14T11:17:26;9.70;14.40
3312;DHT22;1668;49.648;8.570;2024-02-14T11:19:53;9.80;1.00
3312;DHT22;1668;49.648;8.570;2024-02-14T11:22:21;9.80;1.00
3312;DHT22;1668;49.648;8.570;2024-02-14T11:24:49;9.90;1.00
3312;DHT22;1668;49.648;8.570;2024-02-14T11:27:18;9.90;1.00
3312;DHT22;1668;49.648;8.570;2024-02-14T11:29:52;9.90;1.00
3312;DHT22;1668;49.648;8.570;2024-02-14T11:32:22;10.00;1.00
3312;DHT22;1668;49.648;8.570;2024-02-14T11:34:56;10.00;57.30
3312;DHT22;1668;49.648;8.570;2024-02-14T11:37:27;10.00;1.00
3312;DHT22;1668;49.648;8.570;2024-02-14T11:39:54;10.10;93.50
3312;DHT22;1668;49.648;8.570;2024-02-14T11:42:23;10.20;1.00
3312;DHT22;1668;49.648;8.570;2024-02-14T11:44:51;10.30;1.00
3312;DHT22;1668;49.648;8.570;2024-02-14T11:47:22;10.30;1.00
3312;DHT22;1668;49.648;8.570;2024-02-14T11:53:10;10.40;1.00
3312;DHT22;1668;49.648;8.570;2024-02-14T11:55:37;10.50;1.00
3312;DHT22;1668;49.648;8.570;2024-02-14T11:58:07;10.50;99.90
3312;DHT22;1668;49.648;8.570;2024-02-14T12:00:37;10.60;1.00
3312;DHT22;1668;49.648;8.570;2024-02-14T12:03:06;10.60;1.00
3312;DHT22;1668;49.648;8.570;2024-02-14T12:05:34;10.60;99.90
3312;DHT22;1668;49.648;8.570;2024-02-14T12:08:01;10.70;99.90
3312;DHT22;1668;49.648;8.570;2024-02-14T12:10:31;10.70;99.90
3312;DHT22;1668;49.648;8.570;2024-02-14T12:12:58;10.60;99.90
3312;DHT22;1668;49.648;8.570;2024-02-14T12:15:26;10.70;30.10
3312;DHT22;1668;49.648;8.570;2024-02-14T12:17:55;10.80;99.90
3312;DHT22;1668;49.648;8.570;2024-02-14T12:20:22;10.80;1.00
3312;DHT22;1668;49.648;8.570;2024-02-14T12:22:50;10.80;1.00
3312;DHT22;1668;49.648;8.570;2024-02-14T12:25:17;10.80;1.00
3312;DHT22;1668;49.648;8.570;2024-02-14T12:27:50;10.80;1.00
3312;DHT22;1668;49.648;8.570;2024-02-14T12:30:17;10.80;37.90
3312;DHT22;1668;49.648;8.570;2024-02-14T12:32:44;10.80;5.70
3312;DHT22;1668;49.648;8.570;2024-02-14T12:35:13;10.80;1.00
3312;DHT22;1668;49.648;8.570;2024-02-14T12:37:39;10.80;87.60
3312;DHT22;1668;49.648;8.570;2024-02-14T12:40:08;10.90;28.90
3312;DHT22;1668;49.648;8.570;2024-02-14T12:42:35;10.90;19.40
3312;DHT22;1668;49.648;8.570;2024-02-14T12:45:02;10.90;99.90
3312;DHT22;1668;49.648;8.570;2024-02-14T12:47:28;10.90;99.90
3312;DHT22;1668;49.648;8.570;2024-02-14T12:49:59;10.90;1.00
3312;DHT22;1668;49.648;8.570;2024-02-14T12:52:27;10.90;99.90
3312;DHT22;1668;49.648;8.570;2024-02-14T12:54:54;10.90;1.00
3312;DHT22;1668;49.648;8.570;2024-02-14T12:57:21;10.90;1.00
3312;DHT22;1668;49.648;8.570;2024-02-14T12:59:48;10.90;99.90
3312;DHT22;1668;49.648;8.570;2024-02-14T13:02:15;10.90;99.90
3312;DHT22;1668;49.648;8.570;2024-02-14T13:04:42;10.90;1.00
3312;DHT22;1668;49.648;8.570;2024-02-14T13:07:09;10.90;99.90
3312;DHT22;1668;49.648;8.570;2024-02-14T13:09:37;10.80;1.00
3312;DHT22;1668;49.648;8.570;2024-02-14T13:12:04;10.80;1.00
3312;DHT22;1668;49.648;8.570;2024-02-14T13:14:35;10.80;1.00
3312;DHT22;1668;49.648;8.570;2024-02-14T13:17:02;10.80;1.00
3312;DHT22;1668;49.648;8.570;2024-02-14T13:19:30;10.80;1.00
3312;DHT22;1668;49.648;8.570;2024-02-14T13:21:57;10.90;99.90
3312;DHT22;1668;49.648;8.570;2024-02-14T13:24:24;10.90;99.90
3312;DHT22;1668;49.648;8.570;2024-02-14T13:26:52;10.90;1.00
3312;DHT22;1668;49.648;8.570;2024-02-14T13:29:19;10.80;1.00
3312;DHT22;1668;49.648;8.570;2024-02-14T13:31:46;10.80;1.00
3312;DHT22;1668;49.648;8.570;2024-02-14T13:37:35;10.80;1.00
3312;DHT22;1668;49.648;8.570;2024-02-14T13:40:02;10.80;1.00
3312;DHT22;1668;49.648;8.570;2024-02-14T13:42:35;10.80;1.00
3312;DHT22;1668;49.648;8.570;2024-02-14T13:45:04;10.80;1.00
3312;DHT22;1668;49.648;8.570;2024-02-14T13:47:33;10.80;1.00
3312;DHT22;1668;49.648;8.570;2024-02-14T13:50:00;10.80;1.00
3312;DHT22;1668;49.648;8.570;2024-02-14T13:52:29;10.80;1.00
3312;DHT22;1668;49.648;8.570;2024-02-14T13:54:56;10.80;1.00
3312;DHT22;1668;49.648;8.570;2024-02-14T13:57:23;10.80;1.00
3312;DHT22;1668;49.648;8.570;2024-02-14T13:59:51;10.80;1.00
3312;DHT22;1668;49.648;8.570;2024-02-14T14:02:19;10.80;1.00
3312;DHT22;1668;49.648;8.570;2024-02-14T14:04:48;10.80;1.00
3312;DHT22;1668;49.648;8.570;2024-02-14T14:07:15;10.80;1.00
3312;DHT22;1668;49.648;8.570;2024-02-14T14:09:43;10.80;1.00
3312;DHT22;1668;49.648;8.570;2024-02-14T14:12:09;10.80;29.10
3312;DHT22;1668;49.648;8.570;2024-02-14T14:14:37;10.80;68.30
3312;DHT22;1668;49.648;8.570;2024-02-14T14:17:05;10.80;97.10
3312;DHT22;1668;49.648;8.570;2024-02-14T14:19:32;10.80;99.90
3312;DHT22;1668;49.648;8.570;2024-02-14T14:21:59;10.80;99.90
3312;DHT22;1668;49.648;8.570;2024-02-14T14:24:26;10.80;99.90
3312;DHT22;1668;49.648;8.570;2024-02-14T14:26:55;10.70;99.60
3312;DHT22;1668;49.648;8.570;2024-02-14T14:29:22;10.70;99.90
3312;DHT22;1668;49.648;8.570;2024-02-14T14:31:48;10.70;99.90
3312;DHT22;1668;49.648;8.570;2024-02-14T14:34:17;10.70;99.90
3312;DHT22;1668;49.648;8.570;2024-02-14T14:36:45;10.70;94.70
3312;DHT22;1668;49.648;8.570;2024-02-14T14:39:12;10.70;99.90
3312;DHT22;1668;49.648;8.570;2024-02-14T14:41:39;10.70;99.50
3312;DHT22;1668;49.648;8.570;2024-02-14T14:44:07;10.70;99.00
3312;DHT22;1668;49.648;8.570;2024-02-14T14:46:34;10.70;99.90
3312;DHT22;1668;49.648;8.570;2024-02-14T14:49:05;10.70;99.90
3312;DHT22;1668;49.648;8.570;2024-02-14T14:51:34;10.70;99.90
3312;DHT22;1668;49.648;8.570;2024-02-14T14:54:01;10.70;99.90
3312;DHT22;1668;49.648;8.570;2024-02-14T14:56:28;10.80;95.10
3312;DHT22;1668;49.648;8.570;2024-02-14T14:58:55;10.80;99.90
3312;DHT22;1668;49.648;8.570;2024-02-14T15:01:24;10.70;99.90
3312;DHT22;1668;49.648;8.570;2024-02-14T15:03:51;10.80;99.90
3312;DHT22;1668;49.648;8.570;2024-02-14T15:06:18;10.70;99.90
3312;DHT22;1668;49.648;8.570;2024-02-14T15:08:47;10.70;99.90
3312;DHT22;1668;49.648;8.570;2024-02-14T15:11:14;10.70;99.90
3312;DHT22;1668;49.648;8.570;2024-02-14T15:13:42;10.70;99.90
3312;DHT22;1668;49.648;8.570;2024-02-14T15:16:10;10.70;99.90
3312;DHT22;1668;49.648;8.570;2024-02-14T15:18:39;10.70;99.90
3312;DHT22;1668;49.648;8.570;2024-02-14T15:21:07;10.70;99.90
3312;DHT22;1668;49.648;8.570;2024-02-14T15:23:34;10.70;99.90
3312;DHT22;1668;49.648;8.570;2024-02-14T15:26:02;10.60;99.90
3312;DHT22;1668;49.648;8.570;2024-02-14T15:28:32;10.60;99.90
3312;DHT22;1668;49.648;8.570;2024-02-14T15:31:05;10.60;99.90
3312;DHT22;1668;49.648;8.570;2024-02-14T15:33:50;10.60;99.90
3312;DHT22;1668;49.648;8.570;2024-02-14T15:36:17;10.60;99.90
3312;DHT22;1668;49.648;8.570;2024-02-14T15:38:44;10.60;99.90
3312;DHT22;1668;49.648;8.570;2024-02-14T15:41:12;10.60;99.90
3312;DHT22;1668;49.648;8.570;2024-02-14T15:43:40;10.60;99.90
3312;DHT22;1668;49.648;8.570;2024-02-14T15:46:09;10.60;99.90
3312;DHT22;1668;49.648;8.570;2024-02-14T15:48:36;10.50;99.90
3312;DHT22;1668;49.648;8.570;2024-02-14T15:51:03;10.50;99.90
3312;DHT22;1668;49.648;8.570;2024-02-14T15:53:30;10.50;99.90
3312;DHT22;1668;49.648;8.570;2024-02-14T15:55:57;10.50;99.90
3312;DHT22;1668;49.648;8.570;2024-02-14T15:58:27;10.50;99.90
3312;DHT22;1668;49.648;8.570;2024-02-14T16:00:53;10.40;99.90
3312;DHT22;1668;49.648;8.570;2024-02-14T16:03:21;10.50;99.90
3312;DHT22;1668;49.648;8.570;2024-02-14T16:05:48;10.40;99.90
3312;DHT22;1668;49.648;8.570;2024-02-14T16:08:15;10.40;99.90
3312;DHT22;1668;49.648;8.570;2024-02-14T16:10:43;10.40;99.90
3312;DHT22;1668;49.648;8.570;2024-02-14T16:13:10;10.40;99.90
3312;DHT22;1668;49.648;8.570;2024-02-14T16:19:01;10.40;99.90
3312;DHT22;1668;49.648;8.570;2024-02-14T16:21:28;10.40;99.90
3312;DHT22;1668;49.648;8.570;2024-02-14T16:23:55;10.40;99.90
3312;DHT22;1668;49.648;8.570;2024-02-14T16:26:23;10.40;99.90
3312;DHT22;1668;49.648;8.570;2024-02-14T16:28:49;10.40;99.90
3312;DHT22;1668;49.648;8.570;2024-02-14T16:31:16;10.40;99.90
3312;DHT22;1668;49.648;8.570;2024-02-14T16:33:43;10.40;99.90